sensor_id;sensor_type;location;lat;lon;timestamp;P1;durP1;ratioP1;P2;durP2;ratioP2
29916;SDS011;16786;49.466;11.068;2023-11-21T00:00:16;4.68;;;1.60;;
29916;SDS011;16786;49.466;11.068;2023-11-21T00:02:43;9.55;;;2.00;;
29916;SDS011;16786;49.466;11.068;2023-11-21T00:05:12;3.92;;;1.85;;
29916;SDS011;16786;49.466;11.068;2023-11-21T00:07:40;7.32;;;2.35;;
29916;SDS011;16786;49.466;11.068;2023-11-21T00:10:08;5.65;;;1.90;;
29916;SDS011;16786;49.466;11.068;2023-11-21T00:12:37;4.50;;;1.40;;
29916;SDS011;16786;49.466;11.068;2023-11-21T00:15:05;4.43;;;1.80;;
29916;SDS011;16786;49.466;11.068;2023-11-21T00:17:32;4.55;;;1.70;;
29916;SDS011;16786;49.466;11.068;2023-11-21T00:19:59;4.13;;;1.95;;
29916;SDS011;16786;49.466;11.068;2023-11-21T00:22:26;3.97;;;1.60;;
29916;SDS011;16786;49.466;11.068;2023-11-21T00:24:53;3.95;;;1.60;;
29916;SDS011;16786;49.466;11.068;2023-11-21T00:27:20;4.78;;;1.98;;
29916;SDS011;16786;49.466;11.068;2023-11-21T00:29:47;4.32;;;1.80;;
29916;SDS011;16786;49.466;11.068;2023-11-21T00:32:14;5.10;;;1.75;;
29916;SDS011;16786;49.466;11.068;2023-11-21T00:34:42;5.82;;;2.17;;
29916;SDS011;16786;49.466;11.068;2023-11-21T00:37:09;4.57;;;1.83;;
29916;SDS011;16786;49.466;11.068;2023-11-21T00:39:36;4.63;;;1.60;;
29916;SDS011;16786;49.466;11.068;2023-11-21T00:42:03;7.32;;;2.20;;
29916;SDS011;16786;49.466;11.068;2023-11-21T00:44:31;4.50;;;1.88;;
29916;SDS011;16786;49.466;11.068;2023-11-21T00:46:58;4.35;;;2.10;;
29916;SDS011;16786;49.466;11.068;2023-11-21T00:49:25;3.88;;;1.90;;
29916;SDS011;16786;49.466;11.068;2023-11-21T00:51:52;5.07;;;2.20;;
29916;SDS011;16786;49.466;11.068;2023-11-21T00:54:19;3.80;;;2.17;;
29916;SDS011;16786;49.466;11.068;2023-11-21T00:56:46;3.97;;;2.10;;
29916;SDS011;16786;49.466;11.068;2023-11-21T00:59:14;4.35;;;2.10;;
29916;SDS011;16786;49.466;11.068;2023-11-21T01:01:41;5.18;;;2.25;;
29916;SDS011;16786;49.466;11.068;2023-11-21T01:04:08;5.82;;;2.45;;
29916;SDS011;16786;49.466;11.068;2023-11-21T01:06:35;7.65;;;2.28;;
29916;SDS011;16786;49.466;11.068;2023-11-21T01:09:02;6.07;;;2.05;;
29916;SDS011;16786;49.466;11.068;2023-11-21T01:14:03;6.72;;;2.22;;
29916;SDS011;16786;49.466;11.068;2023-11-21T01:16:31;10.75;;;2.70;;
29916;SDS011;16786;49.466;11.068;2023-11-21T01:19:02;5.07;;;2.30;;
29916;SDS011;16786;49.466;11.068;2023-11-21T01:21:31;7.00;;;2.47;;
29916;SDS011;16786;49.466;11.068;2023-11-21T01:23:58;5.43;;;2.53;;
29916;SDS011;16786;49.466;11.068;2023-11-21T01:26:25;5.13;;;2.50;;
29916;SDS011;16786;49.466;11.068;2023-11-21T01:28:52;6.57;;;2.42;;
29916;SDS011;16786;49.466;11.068;2023-11-21T01:31:19;6.50;;;2.40;;
29916;SDS011;16786;49.466;11.068;2023-11-21T01:33:47;6.07;;;1.98;;
29916;SDS011;16786;49.466;11.068;2023-11-21T01:36:15;6.07;;;2.20;;
29916;SDS011;16786;49.466;11.068;2023-11-21T01:38:44;5.95;;;2.05;;
29916;SDS011;16786;49.466;11.068;2023-11-21T01:41:12;3.97;;;2.03;;
29916;SDS011;16786;49.466;11.068;2023-11-21T01:43:39;4.78;;;2.00;;
29916;SDS011;16786;49.466;11.068;2023-11-21T01:46:08;5.80;;;2.20;;
29916;SDS011;16786;49.466;11.068;2023-11-21T01:48:35;6.68;;;1.90;;
29916;SDS011;16786;49.466;11.068;2023-11-21T01:51:02;6.85;;;2.13;;
29916;SDS011;16786;49.466;11.068;2023-11-21T01:53:29;4.20;;;1.80;;
29916;SDS011;16786;49.466;11.068;2023-11-21T01:55:56;4.80;;;1.88;;
29916;SDS011;16786;49.466;11.068;2023-11-21T01:58:25;5.97;;;2.00;;
29916;SDS011;16786;49.466;11.068;2023-11-21T02:00:52;6.82;;;2.60;;
29916;SDS011;16786;49.466;11.068;2023-11-21T02:03:21;4.22;;;2.13;;
29916;SDS011;16786;49.466;11.068;2023-11-21T02:05:48;5.70;;;2.17;;
29916;SDS011;16786;49.466;11.068;2023-11-21T02:08:15;5.72;;;2.10;;
29916;SDS011;16786;49.466;11.068;2023-11-21T02:10:43;4.63;;;2.00;;
29916;SDS011;16786;49.466;11.068;2023-11-21T02:13:10;3.88;;;2.03;;
29916;SDS011;16786;49.466;11.068;2023-11-21T02:15:37;7.30;;;2.47;;
29916;SDS011;16786;49.466;11.068;2023-11-21T02:18:05;3.95;;;1.70;;
29916;SDS011;16786;49.466;11.068;2023-11-21T02:20:33;5.18;;;1.75;;
29916;SDS011;16786;49.466;11.068;2023-11-21T02:23:02;3.70;;;1.88;;
29916;SDS011;16786;49.466;11.068;2023-11-21T02:25:32;4.35;;;1.70;;
29916;SDS011;16786;49.466;11.068;2023-11-21T02:28:01;5.60;;;1.80;;
29916;SDS011;16786;49.466;11.068;2023-11-21T02:30:29;8.13;;;2.63;;
29916;SDS011;16786;49.466;11.068;2023-11-21T02:33:02;5.00;;;2.15;;
29916;SDS011;16786;49.466;11.068;2023-11-21T02:35:30;4.82;;;2.08;;
29916;SDS011;16786;49.466;11.068;2023-11-21T02:37:58;5.47;;;2.08;;
29916;SDS011;16786;49.466;11.068;2023-11-21T02:40:25;7.13;;;2.15;;
29916;SDS011;16786;49.466;11.068;2023-11-21T02:42:53;5.90;;;2.33;;
29916;SDS011;16786;49.466;11.068;2023-11-21T02:45:20;5.05;;;2.17;;
29916;SDS011;16786;49.466;11.068;2023-11-21T02:47:49;4.90;;;2.08;;
29916;SDS011;16786;49.466;11.068;2023-11-21T02:50:16;8.27;;;2.33;;
29916;SDS011;16786;49.466;11.068;2023-11-21T02:52:45;8.65;;;2.05;;
29916;SDS011;16786;49.466;11.068;2023-11-21T02:55:13;4.32;;;1.90;;
29916;SDS011;16786;49.466;11.068;2023-11-21T02:57:40;7.35;;;2.30;;
29916;SDS011;16786;49.466;11.068;2023-11-21T03:00:08;8.38;;;3.78;;
29916;SDS011;16786;49.466;11.068;2023-11-21T03:02:36;6.40;;;2.45;;
29916;SDS011;16786;49.466;11.068;2023-11-21T03:05:06;7.50;;;2.22;;
29916;SDS011;16786;49.466;11.068;2023-11-21T03:07:39;5.07;;;2.63;;
29916;SDS011;16786;49.466;11.068;2023-11-21T03:10:07;6.10;;;2.22;;
29916;SDS011;16786;49.466;11.068;2023-11-21T03:12:39;6.50;;;2.20;;
29916;SDS011;16786;49.466;11.068;2023-11-21T03:15:06;7.18;;;2.40;;
29916;SDS011;16786;49.466;11.068;2023-11-21T03:17:34;4.50;;;2.20;;
29916;SDS011;16786;49.466;11.068;2023-11-21T03:20:02;6.72;;;2.20;;
29916;SDS011;16786;49.466;11.068;2023-11-21T03:22:30;5.22;;;2.20;;
29916;SDS011;16786;49.466;11.068;2023-11-21T03:24:58;5.68;;;2.08;;
29916;SDS011;16786;49.466;11.068;2023-11-21T03:27:26;5.10;;;2.25;;
29916;SDS011;16786;49.466;11.068;2023-11-21T03:29:53;6.97;;;2.58;;
29916;SDS011;16786;49.466;11.068;2023-11-21T03:32:21;8.10;;;2.35;;
29916;SDS011;16786;49.466;11.068;2023-11-21T03:34:55;7.38;;;2.60;;
29916;SDS011;16786;49.466;11.068;2023-11-21T03:37:25;5.38;;;2.22;;
29916;SDS011;16786;49.466;11.068;2023-11-21T03:39:57;5.97;;;2.30;;
29916;SDS011;16786;49.466;11.068;2023-11-21T03:42:24;5.68;;;2.60;;
29916;SDS011;16786;49.466;11.068;2023-11-21T03:44:54;5.72;;;2.75;;
29916;SDS011;16786;49.466;11.068;2023-11-21T03:47:21;6.72;;;2.40;;
29916;SDS011;16786;49.466;11.068;2023-11-21T03:49:48;6.18;;;2.50;;
29916;SDS011;16786;49.466;11.068;2023-11-21T03:52:15;6.28;;;2.72;;
29916;SDS011;16786;49.466;11.068;2023-11-21T03:54:43;4.28;;;2.78;;
29916;SDS011;16786;49.466;11.068;2023-11-21T03:57:10;8.20;;;3.30;;
29916;SDS011;16786;49.466;11.068;2023-11-21T03:59:41;7.57;;;2.78;;
29916;SDS011;16786;49.466;11.068;2023-11-21T04:02:08;6.63;;;2.45;;
29916;SDS011;16786;49.466;11.068;2023-11-21T04:04:36;7.43;;;2.88;;
29916;SDS011;16786;49.466;11.068;2023-11-21T04:07:03;6.30;;;2.42;;
29916;SDS011;16786;49.466;11.068;2023-11-21T04:09:31;7.93;;;3.17;;
29916;SDS011;16786;49.466;11.068;2023-11-21T04:11:58;6.07;;;2.60;;
29916;SDS011;16786;49.466;11.068;2023-11-21T04:14:25;5.72;;;2.40;;
29916;SDS011;16786;49.466;11.068;2023-11-21T04:16:53;4.47;;;2.60;;
29916;SDS011;16786;49.466;11.068;2023-11-21T04:19:21;8.65;;;2.45;;
29916;SDS011;16786;49.466;11.068;2023-11-21T04:21:48;10.18;;;2.60;;
29916;SDS011;16786;49.466;11.068;2023-11-21T04:24:15;8.13;;;2.58;;
29916;SDS011;16786;49.466;11.068;2023-11-21T04:26:43;5.05;;;2.28;;
29916;SDS011;16786;49.466;11.068;2023-11-21T04:29:10;6.88;;;2.35;;
29916;SDS011;16786;49.466;11.068;2023-11-21T04:31:37;5.57;;;2.22;;
29916;SDS011;16786;49.466;11.068;2023-11-21T04:34:04;7.20;;;2.35;;
29916;SDS011;16786;49.466;11.068;2023-11-21T04:36:31;5.43;;;2.50;;
29916;SDS011;16786;49.466;11.068;2023-11-21T04:38:58;5.88;;;2.10;;
29916;SDS011;16786;49.466;11.068;2023-11-21T04:41:25;6.70;;;2.55;;
29916;SDS011;16786;49.466;11.068;2023-11-21T04:43:52;4.82;;;2.40;;
29916;SDS011;16786;49.466;11.068;2023-11-21T04:46:19;5.45;;;2.40;;
29916;SDS011;16786;49.466;11.068;2023-11-21T04:48:46;5.43;;;2.80;;
29916;SDS011;16786;49.466;11.068;2023-11-21T04:51:13;6.80;;;2.90;;
29916;SDS011;16786;49.466;11.068;2023-11-21T04:53:40;6.57;;;2.58;;
29916;SDS011;16786;49.466;11.068;2023-11-21T04:56:07;5.80;;;2.70;;
29916;SDS011;16786;49.466;11.068;2023-11-21T04:58:34;10.43;;;3.25;;
29916;SDS011;16786;49.466;11.068;2023-11-21T05:01:02;5.90;;;2.78;;
29916;SDS011;16786;49.466;11.068;2023-11-21T05:03:34;5.55;;;3.00;;
29916;SDS011;16786;49.466;11.068;2023-11-21T05:06:01;5.28;;;2.72;;
29916;SDS011;16786;49.466;11.068;2023-11-21T05:08:28;6.13;;;2.70;;
29916;SDS011;16786;49.466;11.068;2023-11-21T05:10:55;8.82;;;3.58;;
29916;SDS011;16786;49.466;11.068;2023-11-21T05:13:23;9.02;;;3.67;;
29916;SDS011;16786;49.466;11.068;2023-11-21T05:15:54;10.23;;;4.77;;
29916;SDS011;16786;49.466;11.068;2023-11-21T05:18:25;7.28;;;3.35;;
29916;SDS011;16786;49.466;11.068;2023-11-21T05:20:57;10.80;;;3.55;;
29916;SDS011;16786;49.466;11.068;2023-11-21T05:23:24;7.63;;;2.95;;
29916;SDS011;16786;49.466;11.068;2023-11-21T05:25:51;10.73;;;3.85;;
29916;SDS011;16786;49.466;11.068;2023-11-21T05:28:18;8.10;;;3.50;;
29916;SDS011;16786;49.466;11.068;2023-11-21T05:30:45;8.70;;;3.50;;
29916;SDS011;16786;49.466;11.068;2023-11-21T05:33:12;6.70;;;2.92;;
29916;SDS011;16786;49.466;11.068;2023-11-21T05:35:39;14.75;;;3.60;;
29916;SDS011;16786;49.466;11.068;2023-11-21T05:38:06;6.47;;;2.97;;
29916;SDS011;16786;49.466;11.068;2023-11-21T05:40:33;5.15;;;2.63;;
29916;SDS011;16786;49.466;11.068;2023-11-21T05:43:01;4.47;;;2.63;;
29916;SDS011;16786;49.466;11.068;2023-11-21T05:45:28;8.10;;;3.30;;
29916;SDS011;16786;49.466;11.068;2023-11-21T05:47:57;7.90;;;3.30;;
29916;SDS011;16786;49.466;11.068;2023-11-21T05:50:25;6.38;;;3.70;;
29916;SDS011;16786;49.466;11.068;2023-11-21T05:52:52;8.90;;;4.13;;
29916;SDS011;16786;49.466;11.068;2023-11-21T05:55:19;7.72;;;3.53;;
29916;SDS011;16786;49.466;11.068;2023-11-21T05:57:48;10.20;;;4.75;;
29916;SDS011;16786;49.466;11.068;2023-11-21T06:00:15;11.15;;;4.53;;
29916;SDS011;16786;49.466;11.068;2023-11-21T06:02:49;9.85;;;3.67;;
29916;SDS011;16786;49.466;11.068;2023-11-21T06:05:18;7.47;;;4.63;;
29916;SDS011;16786;49.466;11.068;2023-11-21T06:07:46;7.90;;;4.03;;
29916;SDS011;16786;49.466;11.068;2023-11-21T06:10:13;9.05;;;4.78;;
29916;SDS011;16786;49.466;11.068;2023-11-21T06:12:41;10.43;;;5.57;;
29916;SDS011;16786;49.466;11.068;2023-11-21T06:15:10;8.75;;;5.43;;
29916;SDS011;16786;49.466;11.068;2023-11-21T06:17:40;12.57;;;6.65;;
29916;SDS011;16786;49.466;11.068;2023-11-21T06:20:09;8.95;;;5.10;;
29916;SDS011;16786;49.466;11.068;2023-11-21T06:22:41;10.00;;;5.32;;
29916;SDS011;16786;49.466;11.068;2023-11-21T06:25:10;10.20;;;5.00;;
29916;SDS011;16786;49.466;11.068;2023-11-21T06:27:40;10.77;;;5.72;;
29916;SDS011;16786;49.466;11.068;2023-11-21T06:30:08;10.13;;;5.25;;
29916;SDS011;16786;49.466;11.068;2023-11-21T06:32:36;8.02;;;4.60;;
29916;SDS011;16786;49.466;11.068;2023-11-21T06:35:04;12.27;;;5.50;;
29916;SDS011;16786;49.466;11.068;2023-11-21T06:37:32;8.57;;;4.88;;
29916;SDS011;16786;49.466;11.068;2023-11-21T06:40:00;8.18;;;4.78;;
29916;SDS011;16786;49.466;11.068;2023-11-21T06:42:30;9.32;;;5.22;;
29916;SDS011;16786;49.466;11.068;2023-11-21T06:44:57;8.85;;;4.85;;
29916;SDS011;16786;49.466;11.068;2023-11-21T06:47:25;9.68;;;4.88;;
29916;SDS011;16786;49.466;11.068;2023-11-21T06:49:53;9.57;;;5.45;;
29916;SDS011;16786;49.466;11.068;2023-11-21T06:52:20;9.40;;;5.28;;
29916;SDS011;16786;49.466;11.068;2023-11-21T06:54:47;11.52;;;5.25;;
29916;SDS011;16786;49.466;11.068;2023-11-21T06:57:17;10.63;;;4.82;;
29916;SDS011;16786;49.466;11.068;2023-11-21T06:59:45;10.70;;;4.60;;
29916;SDS011;16786;49.466;11.068;2023-11-21T07:02:12;6.53;;;4.35;;
29916;SDS011;16786;49.466;11.068;2023-11-21T07:04:39;10.23;;;4.72;;
29916;SDS011;16786;49.466;11.068;2023-11-21T07:07:06;8.70;;;4.90;;
29916;SDS011;16786;49.466;11.068;2023-11-21T07:09:36;9.50;;;4.80;;
29916;SDS011;16786;49.466;11.068;2023-11-21T07:12:04;5.93;;;3.90;;
29916;SDS011;16786;49.466;11.068;2023-11-21T07:14:34;8.55;;;4.43;;
29916;SDS011;16786;49.466;11.068;2023-11-21T07:17:01;9.52;;;4.88;;
29916;SDS011;16786;49.466;11.068;2023-11-21T07:19:28;8.98;;;4.35;;
29916;SDS011;16786;49.466;11.068;2023-11-21T07:21:57;8.75;;;4.80;;
29916;SDS011;16786;49.466;11.068;2023-11-21T07:24:23;13.48;;;5.47;;
29916;SDS011;16786;49.466;11.068;2023-11-21T07:26:53;9.50;;;4.57;;
29916;SDS011;16786;49.466;11.068;2023-11-21T07:29:23;9.60;;;4.75;;
29916;SDS011;16786;49.466;11.068;2023-11-21T07:31:55;11.30;;;5.57;;
29916;SDS011;16786;49.466;11.068;2023-11-21T07:34:23;9.43;;;5.30;;
29916;SDS011;16786;49.466;11.068;2023-11-21T07:36:50;10.30;;;5.35;;
29916;SDS011;16786;49.466;11.068;2023-11-21T07:39:17;9.30;;;4.93;;
29916;SDS011;16786;49.466;11.068;2023-11-21T07:41:44;8.18;;;5.25;;
29916;SDS011;16786;49.466;11.068;2023-11-21T07:44:18;8.73;;;4.80;;
29916;SDS011;16786;49.466;11.068;2023-11-21T07:46:46;9.82;;;5.50;;
29916;SDS011;16786;49.466;11.068;2023-11-21T07:49:13;8.85;;;5.20;;
29916;SDS011;16786;49.466;11.068;2023-11-21T07:51:47;9.65;;;5.45;;
29916;SDS011;16786;49.466;11.068;2023-11-21T07:54:14;9.43;;;5.45;;
29916;SDS011;16786;49.466;11.068;2023-11-21T07:56:42;10.32;;;4.93;;
29916;SDS011;16786;49.466;11.068;2023-11-21T07:59:09;8.68;;;4.72;;
29916;SDS011;16786;49.466;11.068;2023-11-21T08:01:36;11.98;;;5.13;;
29916;SDS011;16786;49.466;11.068;2023-11-21T08:04:04;11.57;;;5.85;;
29916;SDS011;16786;49.466;11.068;2023-11-21T08:06:31;9.95;;;5.85;;
29916;SDS011;16786;49.466;11.068;2023-11-21T08:08:59;10.57;;;6.07;;
29916;SDS011;16786;49.466;11.068;2023-11-21T08:11:26;9.00;;;5.50;;
29916;SDS011;16786;49.466;11.068;2023-11-21T08:13:56;11.45;;;6.38;;
29916;SDS011;16786;49.466;11.068;2023-11-21T08:16:23;8.90;;;5.50;;
29916;SDS011;16786;49.466;11.068;2023-11-21T08:18:51;9.85;;;5.47;;
29916;SDS011;16786;49.466;11.068;2023-11-21T08:21:18;11.98;;;6.68;;
29916;SDS011;16786;49.466;11.068;2023-11-21T08:23:46;10.90;;;5.82;;
29916;SDS011;16786;49.466;11.068;2023-11-21T08:26:15;8.20;;;5.95;;
29916;SDS011;16786;49.466;11.068;2023-11-21T08:28:44;10.93;;;5.75;;
29916;SDS011;16786;49.466;11.068;2023-11-21T08:31:11;15.52;;;6.78;;
29916;SDS011;16786;49.466;11.068;2023-11-21T08:33:41;12.15;;;6.68;;
29916;SDS011;16786;49.466;11.068;2023-11-21T08:36:09;9.43;;;6.00;;
29916;SDS011;16786;49.466;11.068;2023-11-21T08:38:37;11.18;;;7.07;;
29916;SDS011;16786;49.466;11.068;2023-11-21T08:41:05;10.52;;;7.45;;
29916;SDS011;16786;49.466;11.068;2023-11-21T08:43:37;13.52;;;7.03;;
29916;SDS011;16786;49.466;11.068;2023-11-21T08:46:08;12.23;;;6.70;;
29916;SDS011;16786;49.466;11.068;2023-11-21T08:48:38;9.77;;;6.53;;
29916;SDS011;16786;49.466;11.068;2023-11-21T08:51:09;11.35;;;6.78;;
29916;SDS011;16786;49.466;11.068;2023-11-21T08:53:40;12.93;;;7.50;;
29916;SDS011;16786;49.466;11.068;2023-11-21T08:56:08;10.95;;;7.13;;
29916;SDS011;16786;49.466;11.068;2023-11-21T08:58:39;12.05;;;7.45;;
29916;SDS011;16786;49.466;11.068;2023-11-21T09:01:08;11.07;;;6.95;;
29916;SDS011;16786;49.466;11.068;2023-11-21T09:03:35;11.82;;;6.53;;
29916;SDS011;16786;49.466;11.068;2023-11-21T09:06:02;10.18;;;7.40;;
29916;SDS011;16786;49.466;11.068;2023-11-21T09:08:30;10.88;;;6.95;;
29916;SDS011;16786;49.466;11.068;2023-11-21T09:10:57;15.90;;;7.90;;
29916;SDS011;16786;49.466;11.068;2023-11-21T09:13:24;12.07;;;7.03;;
29916;SDS011;16786;49.466;11.068;2023-11-21T09:15:51;8.95;;;7.03;;
29916;SDS011;16786;49.466;11.068;2023-11-21T09:18:18;11.27;;;7.50;;
29916;SDS011;16786;49.466;11.068;2023-11-21T09:20:45;13.85;;;6.65;;
29916;SDS011;16786;49.466;11.068;2023-11-21T09:23:13;11.63;;;7.40;;
29916;SDS011;16786;49.466;11.068;2023-11-21T09:25:40;11.05;;;6.72;;
29916;SDS011;16786;49.466;11.068;2023-11-21T09:28:08;12.32;;;6.88;;
29916;SDS011;16786;49.466;11.068;2023-11-21T09:30:36;18.92;;;6.90;;
29916;SDS011;16786;49.466;11.068;2023-11-21T09:33:03;13.80;;;6.97;;
29916;SDS011;16786;49.466;11.068;2023-11-21T09:35:33;43.70;;;9.13;;
29916;SDS011;16786;49.466;11.068;2023-11-21T09:38:00;19.92;;;6.95;;
29916;SDS011;16786;49.466;11.068;2023-11-21T09:40:32;15.38;;;7.60;;
29916;SDS011;16786;49.466;11.068;2023-11-21T09:42:59;13.00;;;7.18;;
29916;SDS011;16786;49.466;11.068;2023-11-21T09:45:37;11.18;;;6.80;;
29916;SDS011;16786;49.466;11.068;2023-11-21T09:48:05;12.07;;;6.70;;
29916;SDS011;16786;49.466;11.068;2023-11-21T09:50:33;12.90;;;7.35;;
29916;SDS011;16786;49.466;11.068;2023-11-21T09:55:48;10.32;;;7.05;;
29916;SDS011;16786;49.466;11.068;2023-11-21T09:58:18;13.40;;;7.00;;
29916;SDS011;16786;49.466;11.068;2023-11-21T10:00:47;11.90;;;6.93;;
29916;SDS011;16786;49.466;11.068;2023-11-21T10:03:16;12.98;;;7.47;;
29916;SDS011;16786;49.466;11.068;2023-11-21T10:05:44;9.20;;;6.40;;
29916;SDS011;16786;49.466;11.068;2023-11-21T10:08:14;12.52;;;7.20;;
29916;SDS011;16786;49.466;11.068;2023-11-21T10:10:43;22.55;;;8.60;;
29916;SDS011;16786;49.466;11.068;2023-11-21T10:13:15;16.75;;;6.30;;
29916;SDS011;16786;49.466;11.068;2023-11-21T10:15:44;13.57;;;6.35;;
29916;SDS011;16786;49.466;11.068;2023-11-21T10:18:15;11.05;;;6.20;;
29916;SDS011;16786;49.466;11.068;2023-11-21T10:20:44;9.55;;;5.43;;
29916;SDS011;16786;49.466;11.068;2023-11-21T10:23:20;8.27;;;5.30;;
29916;SDS011;16786;49.466;11.068;2023-11-21T10:25:53;9.38;;;5.55;;
29916;SDS011;16786;49.466;11.068;2023-11-21T10:28:24;9.00;;;5.22;;
29916;SDS011;16786;49.466;11.068;2023-11-21T10:30:50;10.23;;;6.15;;
29916;SDS011;16786;49.466;11.068;2023-11-21T10:33:21;11.43;;;5.18;;
29916;SDS011;16786;49.466;11.068;2023-11-21T10:35:56;8.73;;;5.00;;
29916;SDS011;16786;49.466;11.068;2023-11-21T10:38:23;7.65;;;4.35;;
29916;SDS011;16786;49.466;11.068;2023-11-21T10:40:51;7.97;;;5.05;;
29916;SDS011;16786;49.466;11.068;2023-11-21T10:43:19;8.00;;;5.22;;
29916;SDS011;16786;49.466;11.068;2023-11-21T10:45:50;13.00;;;5.33;;
29916;SDS011;16786;49.466;11.068;2023-11-21T10:48:18;8.57;;;4.75;;
29916;SDS011;16786;49.466;11.068;2023-11-21T10:50:47;9.27;;;4.90;;
29916;SDS011;16786;49.466;11.068;2023-11-21T10:53:14;8.90;;;5.45;;
29916;SDS011;16786;49.466;11.068;2023-11-21T10:55:42;8.95;;;4.47;;
29916;SDS011;16786;49.466;11.068;2023-11-21T10:58:13;11.30;;;6.05;;
29916;SDS011;16786;49.466;11.068;2023-11-21T11:00:41;8.95;;;5.32;;
29916;SDS011;16786;49.466;11.068;2023-11-21T11:03:11;10.43;;;5.10;;
29916;SDS011;16786;49.466;11.068;2023-11-21T11:05:43;11.80;;;6.95;;
29916;SDS011;16786;49.466;11.068;2023-11-21T11:08:19;12.65;;;6.10;;
29916;SDS011;16786;49.466;11.068;2023-11-21T11:10:53;7.43;;;4.18;;
29916;SDS011;16786;49.466;11.068;2023-11-21T11:13:20;7.40;;;4.00;;
29916;SDS011;16786;49.466;11.068;2023-11-21T11:15:49;6.72;;;4.10;;
29916;SDS011;16786;49.466;11.068;2023-11-21T11:18:17;8.15;;;4.72;;
29916;SDS011;16786;49.466;11.068;2023-11-21T11:20:47;8.52;;;4.60;;
29916;SDS011;16786;49.466;11.068;2023-11-21T11:26:27;8.77;;;4.60;;
29916;SDS011;16786;49.466;11.068;2023-11-21T11:29:07;5.82;;;3.80;;
29916;SDS011;16786;49.466;11.068;2023-11-21T11:34:46;7.47;;;4.50;;
29916;SDS011;16786;49.466;11.068;2023-11-21T11:37:24;8.65;;;4.32;;
29916;SDS011;16786;49.466;11.068;2023-11-21T11:39:51;6.43;;;4.10;;
29916;SDS011;16786;49.466;11.068;2023-11-21T11:42:18;5.13;;;3.45;;
29916;SDS011;16786;49.466;11.068;2023-11-21T11:44:47;7.53;;;3.92;;
29916;SDS011;16786;49.466;11.068;2023-11-21T11:47:25;7.47;;;3.90;;
29916;SDS011;16786;49.466;11.068;2023-11-21T11:50:10;5.45;;;3.97;;
29916;SDS011;16786;49.466;11.068;2023-11-21T11:52:47;5.68;;;4.05;;
29916;SDS011;16786;49.466;11.068;2023-11-21T11:55:18;7.40;;;4.25;;
29916;SDS011;16786;49.466;11.068;2023-11-21T11:57:47;8.10;;;4.45;;
29916;SDS011;16786;49.466;11.068;2023-11-21T12:00:33;7.03;;;4.45;;
29916;SDS011;16786;49.466;11.068;2023-11-21T12:03:04;5.50;;;4.50;;
29916;SDS011;16786;49.466;11.068;2023-11-21T12:05:34;7.25;;;4.10;;
29916;SDS011;16786;49.466;11.068;2023-11-21T12:08:06;9.80;;;4.97;;
29916;SDS011;16786;49.466;11.068;2023-11-21T12:10:34;6.90;;;4.90;;
29916;SDS011;16786;49.466;11.068;2023-11-21T12:13:05;9.68;;;4.85;;
29916;SDS011;16786;49.466;11.068;2023-11-21T12:15:38;10.38;;;5.38;;
29916;SDS011;16786;49.466;11.068;2023-11-21T12:18:07;8.65;;;5.05;;
29916;SDS011;16786;49.466;11.068;2023-11-21T12:20:34;7.35;;;4.80;;
29916;SDS011;16786;49.466;11.068;2023-11-21T12:23:09;10.05;;;4.85;;
29916;SDS011;16786;49.466;11.068;2023-11-21T12:25:37;8.60;;;5.30;;
29916;SDS011;16786;49.466;11.068;2023-11-21T12:28:09;11.60;;;5.00;;
29916;SDS011;16786;49.466;11.068;2023-11-21T12:30:36;6.97;;;4.68;;
29916;SDS011;16786;49.466;11.068;2023-11-21T12:33:06;8.63;;;5.68;;
29916;SDS011;16786;49.466;11.068;2023-11-21T12:35:36;9.43;;;6.03;;
29916;SDS011;16786;49.466;11.068;2023-11-21T12:38:05;10.35;;;6.30;;
29916;SDS011;16786;49.466;11.068;2023-11-21T12:40:32;9.95;;;5.72;;
29916;SDS011;16786;49.466;11.068;2023-11-21T12:43:02;12.00;;;6.50;;
29916;SDS011;16786;49.466;11.068;2023-11-21T12:45:31;10.38;;;6.88;;
29916;SDS011;16786;49.466;11.068;2023-11-21T12:48:02;9.88;;;5.82;;
29916;SDS011;16786;49.466;11.068;2023-11-21T12:50:35;8.20;;;5.88;;
29916;SDS011;16786;49.466;11.068;2023-11-21T12:53:04;10.90;;;6.30;;
29916;SDS011;16786;49.466;11.068;2023-11-21T12:55:35;8.98;;;5.95;;
29916;SDS011;16786;49.466;11.068;2023-11-21T12:58:06;9.75;;;6.30;;
29916;SDS011;16786;49.466;11.068;2023-11-21T13:00:44;8.50;;;6.13;;
29916;SDS011;16786;49.466;11.068;2023-11-21T13:03:14;8.20;;;6.13;;
29916;SDS011;16786;49.466;11.068;2023-11-21T13:05:46;8.70;;;5.50;;
29916;SDS011;16786;49.466;11.068;2023-11-21T13:08:19;9.68;;;6.18;;
29916;SDS011;16786;49.466;11.068;2023-11-21T13:10:49;11.00;;;6.50;;
29916;SDS011;16786;49.466;11.068;2023-11-21T13:13:18;11.13;;;5.57;;
29916;SDS011;16786;49.466;11.068;2023-11-21T13:15:54;8.10;;;5.90;;
29916;SDS011;16786;49.466;11.068;2023-11-21T13:18:23;10.38;;;5.63;;
29916;SDS011;16786;49.466;11.068;2023-11-21T13:20:57;7.70;;;5.82;;
29916;SDS011;16786;49.466;11.068;2023-11-21T13:23:26;9.85;;;6.10;;
29916;SDS011;16786;49.466;11.068;2023-11-21T13:25:53;9.23;;;5.28;;
29916;SDS011;16786;49.466;11.068;2023-11-21T13:28:31;11.77;;;5.45;;
29916;SDS011;16786;49.466;11.068;2023-11-21T13:31:00;10.57;;;5.10;;
29916;SDS011;16786;49.466;11.068;2023-11-21T13:33:36;10.18;;;5.78;;
29916;SDS011;16786;49.466;11.068;2023-11-21T13:36:10;8.13;;;4.90;;
29916;SDS011;16786;49.466;11.068;2023-11-21T13:38:38;9.38;;;5.30;;
29916;SDS011;16786;49.466;11.068;2023-11-21T13:41:09;9.32;;;4.65;;
29916;SDS011;16786;49.466;11.068;2023-11-21T13:43:39;7.63;;;4.22;;
29916;SDS011;16786;49.466;11.068;2023-11-21T13:46:06;9.85;;;3.95;;
29916;SDS011;16786;49.466;11.068;2023-11-21T13:48:41;6.35;;;3.65;;
29916;SDS011;16786;49.466;11.068;2023-11-21T13:51:18;6.63;;;3.55;;
29916;SDS011;16786;49.466;11.068;2023-11-21T13:53:46;5.80;;;3.80;;
29916;SDS011;16786;49.466;11.068;2023-11-21T13:56:16;5.70;;;3.80;;
29916;SDS011;16786;49.466;11.068;2023-11-21T13:58:47;7.78;;;3.92;;
29916;SDS011;16786;49.466;11.068;2023-11-21T14:01:18;5.28;;;3.47;;
29916;SDS011;16786;49.466;11.068;2023-11-21T14:03:58;5.82;;;3.63;;
29916;SDS011;16786;49.466;11.068;2023-11-21T14:06:43;7.20;;;3.65;;
29916;SDS011;16786;49.466;11.068;2023-11-21T14:09:15;7.65;;;3.80;;
29916;SDS011;16786;49.466;11.068;2023-11-21T14:11:52;5.43;;;3.35;;
29916;SDS011;16786;49.466;11.068;2023-11-21T14:14:21;6.65;;;3.40;;
29916;SDS011;16786;49.466;11.068;2023-11-21T14:16:48;6.15;;;3.35;;
29916;SDS011;16786;49.466;11.068;2023-11-21T14:19:17;5.43;;;3.75;;
29916;SDS011;16786;49.466;11.068;2023-11-21T14:21:44;6.03;;;3.60;;
29916;SDS011;16786;49.466;11.068;2023-11-21T14:24:13;7.22;;;3.72;;
29916;SDS011;16786;49.466;11.068;2023-11-21T14:26:46;6.88;;;4.25;;
29916;SDS011;16786;49.466;11.068;2023-11-21T14:29:15;7.05;;;4.20;;
29916;SDS011;16786;49.466;11.068;2023-11-21T14:31:46;9.23;;;4.60;;
29916;SDS011;16786;49.466;11.068;2023-11-21T14:34:15;7.45;;;4.25;;
29916;SDS011;16786;49.466;11.068;2023-11-21T14:36:46;7.25;;;5.07;;
29916;SDS011;16786;49.466;11.068;2023-11-21T14:39:16;7.45;;;4.10;;
29916;SDS011;16786;49.466;11.068;2023-11-21T14:42:03;8.52;;;4.65;;
29916;SDS011;16786;49.466;11.068;2023-11-21T14:44:31;8.98;;;4.47;;
29916;SDS011;16786;49.466;11.068;2023-11-21T14:47:04;6.05;;;4.03;;
29916;SDS011;16786;49.466;11.068;2023-11-21T14:49:39;6.97;;;4.38;;
29916;SDS011;16786;49.466;11.068;2023-11-21T14:52:19;7.35;;;4.40;;